Time;durP1;ratioP1;P1;durP2;ratioP2;P2;SDS_P1;SDS_P2;PMS_P1;PMS_P2;Temp;Humidity;BMP_temperature;BMP_pressure;BME280_temperature;BME280_humidity;BME280_pressure;Samples;Min_cycle;Max_cycle;Signal;HPM_P1;HPM_P2
2023/02/25 00:02:21;;;;;;;29.80;14.70;;;5.40;84.00;;;;;;5052777;28;20051;-76
2023/02/25 00:04:47;;;;;;;26.60;14.27;;;5.40;83.90;;;;;;5052865;28;20028;-76
2023/02/25 00:07:13;;;;;;;27.25;14.98;;;5.40;84.10;;;;;;5035030;28;20509;-76
2023/02/25 00:09:38;;;;;;;30.60;16.35;;;5.40;84.20;;;;;;5034961;28;20021;-76
2023/02/25 00:12:04;;;;;;;28.33;14.77;;;5.30;84.70;;;;;;5034804;28;20017;-76
2023/02/25 00:14:30;;;;;;;29.63;14.13;;;5.30;84.40;;;;;;5035520;28;20031;-76
2023/02/25 00:16:56;;;;;;;26.02;14.80;;;5.30;84.00;;;;;;5035092;28;20393;-76
2023/02/25 00:19:26;;;;;;;30.17;13.95;;;5.30;83.60;;;;;;5034566;28;20048;-76
2023/02/25 00:21:51;;;;;;;25.92;13.63;;;5.40;83.00;;;;;;5034848;28;20088;-76
2023/02/25 00:24:17;;;;;;;25.13;14.52;;;5.30;84.10;;;;;;5034874;28;20068;-76
2023/02/25 00:26:43;;;;;;;28.42;15.23;;;5.30;83.20;;;;;;5034810;28;20021;-76
2023/02/25 00:29:09;;;;;;;27.02;15.40;;;5.30;83.50;;;;;;5034433;28;20090;-76
2023/02/25 00:31:34;;;;;;;26.73;14.70;;;5.30;83.50;;;;;;5034767;28;20470;-77
2023/02/25 00:34:00;;;;;;;23.77;13.93;;;5.40;84.60;;;;;;5034586;28;20025;-76
2023/02/25 00:36:26;;;;;;;25.23;14.18;;;5.30;83.60;;;;;;5034936;28;20048;-76
2023/02/25 00:38:54;;;;;;;25.40;14.73;;;5.30;83.60;;;;;;5035940;28;20033;-76
2023/02/25 00:41:27;;;;;;;26.05;13.82;;;5.30;83.70;;;;;;5022002;28;20021;-76
2023/02/25 00:44:02;;;;;;;24.70;13.73;;;5.30;84.60;;;;;;5038394;28;20032;-76
2023/02/25 00:46:29;;;;;;;24.75;14.07;;;5.40;84.10;;;;;;5038610;28;20021;-75
2023/02/25 00:48:54;;;;;;;26.60;13.30;;;5.40;84.00;;;;;;5038367;28;20025;-75
2023/02/25 00:51:26;;;;;;;22.05;12.85;;;5.30;84.30;;;;;;5038279;28;20043;-76
2023/02/25 00:53:54;;;;;;;24.15;14.48;;;5.30;84.70;;;;;;5038342;28;20488;-75
2023/02/25 00:56:20;;;;;;;26.20;13.55;;;5.30;84.80;;;;;;5038380;28;20029;-75
2023/02/25 00:58:47;;;;;;;24.88;14.25;;;5.30;84.30;;;;;;5038120;28;20400;-76
2023/02/25 01:01:29;;;;;;;27.45;13.68;;;5.30;84.00;;;;;;5037879;28;20025;-76
2023/02/25 01:03:57;;;;;;;25.90;13.27;;;5.30;84.00;;;;;;5037987;28;20393;-78
2023/02/25 01:06:27;;;;;;;23.65;13.48;;;5.30;84.00;;;;;;5037572;28;20070;-75
2023/02/25 01:08:53;;;;;;;22.88;13.98;;;5.30;83.60;;;;;;5037878;28;20075;-75
2023/02/25 01:11:26;;;;;;;20.25;12.95;;;5.30;84.60;;;;;;5037069;28;20482;-75
2023/02/25 01:13:52;;;;;;;25.30;13.93;;;5.30;83.80;;;;;;5037785;28;20029;-75
2023/02/25 01:16:25;;;;;;;21.75;13.10;;;5.20;84.10;;;;;;5037702;28;20032;-76
2023/02/25 01:18:52;;;;;;;19.33;12.05;;;5.30;84.30;;;;;;5037669;28;20041;-76
2023/02/25 01:21:20;;;;;;;24.42;13.95;;;5.20;84.30;;;;;;5037845;28;20021;-75
2023/02/25 01:23:47;;;;;;;20.45;12.20;;;5.30;84.20;;;;;;5037223;28;20134;-76
2023/02/25 01:26:15;;;;;;;22.58;12.02;;;5.20;83.30;;;;;;5037510;28;20112;-75
2023/02/25 01:28:40;;;;;;;20.02;12.52;;;5.20;83.50;;;;;;5055382;28;20075;-76
2023/02/25 01:31:15;;;;;;;19.98;12.65;;;5.20;83.80;;;;;;5037588;28;20412;-75
2023/02/25 01:33:42;;;;;;;14.18;9.05;;;5.10;83.90;;;;;;5037610;28;20058;-76
2023/02/25 01:36:08;;;;;;;19.20;12.70;;;5.10;84.00;;;;;;5037259;28;20029;-76
2023/02/25 01:38:34;;;;;;;22.23;12.95;;;5.10;84.20;;;;;;5037221;28;20047;-75
2023/02/25 01:41:01;;;;;;;21.85;12.73;;;5.10;84.40;;;;;;5037241;28;20516;-76
2023/02/25 01:43:27;;;;;;;20.55;12.23;;;5.10;84.00;;;;;;5037643;28;20025;-75
2023/02/25 01:45:54;;;;;;;19.60;12.07;;;5.10;84.00;;;;;;5037553;28;20025;-74
2023/02/25 01:48:24;;;;;;;19.67;12.18;;;5.20;84.20;;;;;;5037237;28;20018;-75
2023/02/25 01:50:57;;;;;;;20.33;13.07;;;5.10;83.80;;;;;;5036762;28;20025;-76
2023/02/25 01:53:31;;;;;;;19.33;12.75;;;5.10;83.90;;;;;;5020294;28;20087;-76
2023/02/25 01:55:58;;;;;;;22.55;13.10;;;5.10;83.70;;;;;;5036777;28;20115;-75
2023/02/25 01:58:26;;;;;;;24.13;13.88;;;5.10;83.90;;;;;;5037074;28;20049;-76
2023/02/25 02:00:55;;;;;;;23.20;14.07;;;5.00;84.00;;;;;;5037069;28;20028;-76
2023/02/25 02:03:25;;;;;;;20.50;12.68;;;5.00;84.10;;;;;;5036941;28;20024;-77
2023/02/25 02:05:57;;;;;;;19.75;13.48;;;4.90;83.70;;;;;;5037177;28;20056;-76
2023/02/25 02:08:25;;;;;;;20.55;13.00;;;4.90;84.10;;;;;;5036981;28;20021;-76
2023/02/25 02:10:51;;;;;;;24.45;13.88;;;4.90;84.20;;;;;;5036939;28;20025;-76
2023/02/25 02:13:17;;;;;;;22.17;14.13;;;4.90;84.20;;;;;;5036765;28;20021;-76
2023/02/25 02:16:04;;;;;;;20.10;13.70;;;4.90;84.70;;;;;;5036265;28;20017;-76
2023/02/25 02:18:34;;;;;;;20.58;13.35;;;4.90;84.60;;;;;;5036484;28;20045;-76
2023/02/25 02:21:34;;;;;;;20.33;13.50;;;4.90;84.90;;;;;;5036784;28;20032;-76
2023/02/25 02:24:13;;;;;;;21.83;13.60;;;5.00;84.20;;;;;;5036420;28;20044;-76
2023/02/25 02:26:47;;;;;;;19.73;13.43;;;5.00;84.00;;;;;;5036081;28;20416;-76
2023/02/25 02:29:25;;;;;;;18.42;12.98;;;5.00;83.70;;;;;;5035923;28;20020;-76
2023/02/25 02:32:05;;;;;;;16.90;12.70;;;5.00;83.40;;;;;;5036598;28;20048;-76
2023/02/25 02:34:52;;;;;;;19.20;12.57;;;5.10;83.20;;;;;;5036201;28;20017;-76
2023/02/25 02:37:26;;;;;;;22.88;12.85;;;5.00;83.20;;;;;;5036144;28;20061;-76
2023/02/25 02:40:14;;;;;;;19.58;13.05;;;5.00;83.00;;;;;;5036063;28;20024;-76
2023/02/25 02:43:11;;;;;;;17.20;11.20;;;4.80;82.90;;;;;;5036211;28;20032;-76
2023/02/25 02:45:58;;;;;;;20.50;12.00;;;4.80;82.50;;;;;;5035852;28;20040;-76
2023/02/25 02:48:33;;;;;;;22.33;13.07;;;4.80;82.10;;;;;;5036164;28;20040;-76
2023/02/25 02:51:00;;;;;;;;;;;4.70;82.70;;;;;;5036058;28;20021;-76
2023/02/25 02:53:33;;;;;;;19.95;11.88;;;4.70;82.40;;;;;;5035974;28;20372;-76
2023/02/25 02:56:01;;;;;;;17.75;11.65;;;4.70;82.10;;;;;;5035662;28;20036;-76
2023/02/25 02:58:40;;;;;;;14.52;11.23;;;4.80;81.80;;;;;;5035892;28;20037;-76
2023/02/25 03:01:20;;;;;;;15.07;10.55;;;4.80;81.50;;;;;;5034855;28;20469;-75
2023/02/25 03:03:58;;;;;;;14.25;10.18;;;4.80;81.70;;;;;;5035799;28;20060;-77
2023/02/25 03:06:29;;;;;;;21.95;10.85;;;4.90;81.90;;;;;;5035739;28;20028;-76
2023/02/25 03:09:08;;;;;;;17.77;11.63;;;4.90;80.90;;;;;;5035563;28;20040;-77
2023/02/25 03:11:34;;;;;;;19.40;11.25;;;4.90;80.60;;;;;;5035658;28;20032;-77
2023/02/25 03:13:59;;;;;;;17.58;11.15;;;4.90;80.90;;;;;;5035402;28;20425;-74
2023/02/25 03:16:39;;;;;;;18.25;11.85;;;4.80;81.20;;;;;;5035578;28;20025;-74
2023/02/25 03:19:12;;;;;;;19.70;10.95;;;4.80;81.20;;;;;;5035480;28;20502;-74
2023/02/25 03:21:42;;;;;;;17.52;11.15;;;4.70;81.00;;;;;;5035644;28;20070;-74
2023/02/25 03:24:14;;;;;;;17.83;11.10;;;4.80;80.80;;;;;;5035424;28;20078;-73
2023/02/25 03:26:41;;;;;;;20.83;10.88;;;4.80;80.10;;;;;;5035382;28;20025;-74
2023/02/25 03:29:16;;;;;;;16.17;10.90;;;4.70;80.10;;;;;;5035326;28;20156;-74
2023/02/25 03:32:08;;;;;;;24.92;12.35;;;4.70;80.20;;;;;;5035182;28;20025;-74
2023/02/25 03:34:42;;;;;;;17.10;11.50;;;4.60;80.60;;;;;;5035568;28;20043;-74
2023/02/25 03:37:21;;;;;;;18.10;11.15;;;4.60;81.00;;;;;;5034994;28;20481;-74
2023/02/25 03:39:51;;;;;;;17.27;11.32;;;4.60;81.10;;;;;;5035701;28;20043;-74
2023/02/25 03:42:24;;;;;;;18.85;12.00;;;4.50;81.70;;;;;;5043090;28;20028;-74
2023/02/25 03:44:52;;;;;;;19.35;11.50;;;4.50;81.60;;;;;;5035832;28;20396;-74
2023/02/25 03:47:21;;;;;;;20.05;12.30;;;4.50;81.70;;;;;;5035809;28;20021;-74
2023/02/25 03:49:51;;;;;;;20.38;12.75;;;4.50;81.80;;;;;;5035543;28;20087;-74
2023/02/25 03:52:20;;;;;;;20.70;12.50;;;4.50;82.20;;;;;;5034795;28;20017;-74
2023/02/25 03:54:51;;;;;;;21.00;13.00;;;4.50;81.90;;;;;;5034967;28;20029;-75
2023/02/25 03:57:17;;;;;;;21.33;13.10;;;4.40;81.60;;;;;;5034948;28;20481;-74
2023/02/25 03:59:43;;;;;;;21.17;13.40;;;4.40;81.80;;;;;;5034922;28;20025;-74
2023/02/25 04:02:10;;;;;;;22.08;12.70;;;4.30;82.40;;;;;;5034592;28;20025;-74
2023/02/25 04:04:35;;;;;;;22.40;13.45;;;4.30;82.40;;;;;;5035266;28;20075;-74
2023/02/25 04:07:01;;;;;;;18.27;12.93;;;4.30;82.40;;;;;;5034598;28;20028;-74
2023/02/25 04:09:26;;;;;;;22.50;14.60;;;4.20;82.20;;;;;;5035027;28;20040;-75
2023/02/25 04:11:56;;;;;;;23.73;13.38;;;4.20;82.40;;;;;;5034962;28;20431;-76
2023/02/25 04:14:23;;;;;;;20.20;13.70;;;4.30;82.40;;;;;;5038698;28;20531;-75
2023/02/25 04:16:50;;;;;;;20.80;14.10;;;4.20;82.50;;;;;;5038842;28;20381;-74
2023/02/25 04:19:17;;;;;;;24.55;15.00;;;4.20;82.80;;;;;;5038523;28;20370;-74
2023/02/25 04:21:43;;;;;;;24.00;13.93;;;4.10;84.00;;;;;;5038917;28;20021;-77
2023/02/25 04:24:08;;;;;;;21.83;13.75;;;4.10;83.40;;;;;;5038913;28;20466;-74
2023/02/25 04:26:35;;;;;;;24.30;13.70;;;4.10;83.30;;;;;;5038956;28;20087;-77
2023/02/25 04:29:00;;;;;;;19.92;13.80;;;4.20;83.10;;;;;;5038752;28;20428;-75
2023/02/25 04:31:26;;;;;;;21.73;14.95;;;4.20;84.10;;;;;;5038745;28;20059;-74
2023/02/25 04:33:52;;;;;;;25.20;14.55;;;4.20;83.00;;;;;;5038473;28;20490;-73
2023/02/25 04:36:22;;;;;;;25.08;15.18;;;4.10;82.80;;;;;;5038366;28;20025;-74
2023/02/25 04:38:47;;;;;;;24.65;16.00;;;4.00;83.60;;;;;;5038593;28;20056;-74
2023/02/25 04:41:13;;;;;;;25.58;16.23;;;4.00;83.10;;;;;;5038351;28;20501;-74
2023/02/25 04:43:38;;;;;;;24.73;16.00;;;4.00;83.30;;;;;;5038194;28;20028;-74
2023/02/25 04:46:04;;;;;;;27.95;17.10;;;4.00;83.40;;;;;;5038353;28;20064;-74
2023/02/25 04:48:30;;;;;;;29.17;17.15;;;3.90;83.70;;;;;;5038368;28;20035;-74
2023/02/25 04:51:00;;;;;;;29.42;16.52;;;3.90;83.60;;;;;;5038057;28;20025;-74
2023/02/25 04:53:26;;;;;;;25.40;16.88;;;3.90;83.50;;;;;;5038248;28;20051;-74
2023/02/25 04:55:52;;;;;;;25.13;16.45;;;3.80;84.50;;;;;;5038290;28;20025;-77
2023/02/25 04:58:17;;;;;;;29.42;16.92;;;3.80;83.80;;;;;;5038033;28;20025;-73
2023/02/25 05:00:47;;;;;;;24.08;16.75;;;3.80;84.00;;;;;;5037876;28;20430;-74
2023/02/25 05:03:14;;;;;;;28.88;17.25;;;3.80;83.80;;;;;;5037528;28;20036;-74
2023/02/25 05:05:40;;;;;;;28.85;17.38;;;3.80;83.80;;;;;;5037659;28;20028;-74
2023/02/25 05:08:06;;;;;;;25.02;16.33;;;3.80;84.00;;;;;;5038102;28;20389;-76
2023/02/25 05:10:32;;;;;;;25.58;15.68;;;3.80;83.90;;;;;;5021562;28;20029;-75
2023/02/25 05:12:57;;;;;;;27.83;16.38;;;3.80;83.90;;;;;;5037897;28;20028;-75
2023/02/25 05:15:24;;;;;;;29.23;17.33;;;3.80;83.50;;;;;;5037117;28;20064;-74
2023/02/25 05:17:49;;;;;;;29.80;18.58;;;3.70;83.50;;;;;;5033911;28;20505;-75
2023/02/25 05:20:16;;;;;;;28.17;17.17;;;3.70;83.60;;;;;;5034474;28;20044;-75
2023/02/25 05:22:41;;;;;;;27.77;18.10;;;3.70;84.00;;;;;;5034281;28;20124;-75
2023/02/25 05:25:08;;;;;;;29.40;17.85;;;3.70;84.00;;;;;;5033223;28;20117;-75
2023/02/25 05:27:34;;;;;;;29.85;18.17;;;3.70;83.50;;;;;;5033954;28;20021;-75
2023/02/25 05:30:01;;;;;;;27.75;17.23;;;3.60;83.40;;;;;;5033890;28;20040;-75
2023/02/25 05:32:29;;;;;;;30.35;18.60;;;3.60;83.70;;;;;;5033906;28;20028;-75
2023/02/25 05:34:54;;;;;;;29.77;17.50;;;3.60;84.00;;;;;;5034023;28;20033;-75
2023/02/25 05:37:20;;;;;;;25.45;16.88;;;3.60;83.80;;;;;;5033953;28;20028;-75
2023/02/25 05:39:45;;;;;;;26.38;17.10;;;3.50;83.70;;;;;;5033688;28;20116;-75
2023/02/25 05:42:11;;;;;;;34.05;21.48;;;3.60;83.80;;;;;;5034078;28;20032;-75
2023/02/25 05:44:37;;;;;;;30.67;17.20;;;3.70;83.80;;;;;;5033936;28;20488;-75
2023/02/25 05:47:02;;;;;;;27.55;16.45;;;3.80;83.50;;;;;;5033659;28;20017;-75
2023/02/25 05:49:28;;;;;;;23.33;16.67;;;3.90;83.70;;;;;;5033981;28;20017;-75
2023/02/25 05:51:54;;;;;;;26.65;16.20;;;3.80;83.50;;;;;;5033808;28;20082;-75
2023/02/25 05:54:19;;;;;;;27.83;15.88;;;3.90;83.40;;;;;;5033564;28;20470;-75
2023/02/25 05:56:45;;;;;;;28.08;15.90;;;3.90;82.70;;;;;;5033716;28;20032;-75
2023/02/25 05:59:11;;;;;;;27.45;15.88;;;3.80;82.70;;;;;;5033622;28;20120;-75
2023/02/25 06:01:36;;;;;;;32.17;19.27;;;3.80;82.60;;;;;;5033066;28;20028;-75
2023/02/25 06:04:02;;;;;;;26.98;16.58;;;3.80;82.70;;;;;;5033731;28;20021;-75
2023/02/25 06:06:30;;;;;;;25.02;16.73;;;3.80;83.00;;;;;;5033484;28;20029;-76
2023/02/25 06:08:56;;;;;;;26.30;16.45;;;3.80;83.20;;;;;;5033428;28;20021;-77
2023/02/25 06:11:25;;;;;;;23.92;15.52;;;3.90;83.50;;;;;;5033217;28;20060;-75
2023/02/25 06:13:52;;;;;;;26.73;14.85;;;3.90;83.50;;;;;;5032566;28;20033;-75
2023/02/25 06:16:18;;;;;;;21.13;14.48;;;3.90;82.20;;;;;;5033025;28;20112;-74
2023/02/25 06:18:45;;;;;;;22.35;13.43;;;4.00;82.10;;;;;;5032837;28;20137;-75
2023/02/25 06:21:13;;;;;;;18.58;11.55;;;4.00;82.50;;;;;;5033415;28;20120;-76
2023/02/25 06:23:40;;;;;;;18.10;10.45;;;3.90;81.00;;;;;;5033123;28;20489;-76
2023/02/25 06:26:10;;;;;;;17.45;8.88;;;3.80;79.70;;;;;;5033309;28;20026;-75
2023/02/25 06:28:36;;;;;;;19.92;9.45;;;3.70;78.40;;;;;;5032794;28;20033;-74
2023/02/25 06:31:09;;;;;;;14.30;8.10;;;3.70;77.70;;;;;;5033048;28;20521;-74
2023/02/25 06:33:35;;;;;;;12.18;7.10;;;3.70;78.00;;;;;;5032836;28;20037;-74
2023/02/25 06:36:03;;;;;;;9.75;5.70;;;3.80;76.50;;;;;;5032723;28;20449;-74
2023/02/25 06:38:30;;;;;;;13.10;5.78;;;3.70;74.30;;;;;;5031720;28;20045;-76
2023/02/25 06:40:56;;;;;;;8.20;5.75;;;3.80;74.80;;;;;;5032811;28;20481;-74
2023/02/25 06:43:22;;;;;;;13.38;5.63;;;3.80;74.40;;;;;;5032786;28;20036;-74
2023/02/25 06:45:47;;;;;;;14.60;5.43;;;3.80;74.80;;;;;;5032852;28;20025;-75
2023/02/25 06:48:13;;;;;;;12.80;4.78;;;3.80;74.70;;;;;;5032808;28;20025;-75
2023/02/25 06:50:39;;;;;;;8.68;4.45;;;3.80;74.10;;;;;;5032357;28;20116;-75
2023/02/25 06:53:06;;;;;;;8.68;4.03;;;3.80;74.20;;;;;;5031857;28;20033;-75
2023/02/25 06:55:32;;;;;;;8.90;3.78;;;3.80;73.20;;;;;;5032253;28;20389;-76
2023/02/25 06:57:57;;;;;;;10.38;3.80;;;3.80;73.20;;;;;;5032057;28;20025;-75
2023/02/25 07:00:23;;;;;;;7.95;3.45;;;3.80;71.80;;;;;;5032441;28;20045;-75
2023/02/25 07:02:48;;;;;;;8.80;3.92;;;3.80;71.90;;;;;;5031937;28;20416;-75
2023/02/25 07:05:14;;;;;;;8.93;3.50;;;3.80;72.00;;;;;;5031819;28;20124;-75
2023/02/25 07:07:40;;;;;;;7.55;3.35;;;3.80;72.30;;;;;;5031986;28;20083;-75
2023/02/25 07:10:09;;;;;;;8.48;3.33;;;3.80;72.60;;;;;;5031781;28;20432;-77
2023/02/25 07:12:34;;;;;;;6.68;3.40;;;3.90;73.00;;;;;;5031822;28;20037;-74
2023/02/25 07:15:00;;;;;;;6.60;3.67;;;4.00;72.30;;;;;;5015474;28;20034;-75
2023/02/25 07:17:25;;;;;;;12.48;3.38;;;4.10;72.60;;;;;;5031678;28;20076;-74
2023/02/25 07:19:51;;;;;;;8.65;4.03;;;4.20;72.30;;;;;;5032154;28;20026;-76
2023/02/25 07:22:17;;;;;;;11.25;4.10;;;4.30;71.50;;;;;;5031615;28;20485;-77
2023/02/25 07:24:44;;;;;;;6.85;3.92;;;4.40;72.60;;;;;;5031669;28;20021;-75
2023/02/25 07:27:11;;;;;;;10.77;3.78;;;4.60;72.20;;;;;;5031087;28;20028;-74
2023/02/25 07:29:37;;;;;;;8.55;3.58;;;4.60;70.70;;;;;;5030294;28;20029;-74
2023/02/25 07:32:03;;;;;;;5.30;2.17;;;4.50;70.10;;;;;;5030872;28;20429;-74
2023/02/25 07:34:29;;;;;;;9.75;2.97;;;4.40;67.30;;;;;;5015418;28;20477;-76
2023/02/25 07:36:55;;;;;;;10.13;3.70;;;4.40;67.70;;;;;;5032040;28;20084;-86
2023/02/25 07:39:21;;;;;;;9.23;3.47;;;4.30;68.80;;;;;;5017939;28;20458;-88
2023/02/25 07:41:48;;;;;;;6.05;3.15;;;4.10;69.50;;;;;;5016393;28;20120;-83
2023/02/25 07:44:14;;;;;;;11.40;4.07;;;4.10;70.10;;;;;;5032012;28;20029;-86
2023/02/25 07:46:40;;;;;;;9.60;5.07;;;4.20;69.40;;;;;;5031592;28;20017;-77
2023/02/25 07:49:06;;;;;;;12.73;5.25;;;4.30;69.70;;;;;;5030693;28;20053;-73
2023/02/25 07:51:32;;;;;;;9.90;4.43;;;4.40;70.10;;;;;;5032100;28;20022;-89
2023/02/25 07:53:59;;;;;;;28.23;7.28;;;4.40;70.50;;;;;;5031782;28;20029;-81
2023/02/25 07:56:27;;;;;;;19.35;6.93;;;4.90;87.40;;;;;;5015150;28;20064;-81
2023/02/25 07:58:53;;;;;;;11.40;4.80;;;5.40;93.80;;;;;;5030941;28;20037;-79
2023/02/25 08:01:27;;;;;;;9.90;3.97;;;5.50;90.40;;;;;;5031148;28;20017;-77
2023/02/25 08:03:55;;;;;;;5.47;3.28;;;5.60;81.90;;;;;;5031183;28;20112;-79
2023/02/25 08:06:22;;;;;;;10.23;3.83;;;5.80;76.30;;;;;;5013244;28;20052;-78
2023/02/25 08:08:50;;;;;;;8.27;3.17;;;6.20;71.90;;;;;;5011661;28;20022;-79
2023/02/25 08:11:18;;;;;;;7.78;3.08;;;6.40;68.30;;;;;;5011577;28;20018;-78
2023/02/25 08:13:44;;;;;;;9.60;3.97;;;6.50;67.00;;;;;;5011347;28;20037;-79
2023/02/25 08:16:12;;;;;;;7.90;3.47;;;6.50;65.80;;;;;;5011390;28;20061;-79
2023/02/25 08:18:41;;;;;;;8.23;3.60;;;6.50;63.80;;;;;;5038145;28;20052;-80
2023/02/25 08:21:08;;;;;;;7.85;2.53;;;6.50;63.90;;;;;;5033973;28;20018;-80
2023/02/25 08:23:34;;;;;;;8.70;2.75;;;6.50;64.80;;;;;;5034470;28;20025;-79
2023/02/25 08:26:00;;;;;;;6.55;2.53;;;6.80;64.90;;;;;;5034342;28;20017;-79
2023/02/25 08:28:29;;;;;;;6.88;2.20;;;7.00;62.10;;;;;;5034054;28;20032;-80
2023/02/25 08:30:54;;;;;;;6.07;1.95;;;7.00;59.40;;;;;;5034556;28;20025;-80
2023/02/25 08:33:20;;;;;;;8.80;2.20;;;7.10;55.90;;;;;;5034256;28;20029;-79
2023/02/25 08:35:45;;;;;;;4.03;1.85;;;7.10;54.90;;;;;;5033751;28;20029;-77
2023/02/25 08:38:11;;;;;;;4.13;1.80;;;7.10;54.40;;;;;;5034056;28;20126;-77
2023/02/25 08:40:38;;;;;;;11.23;6.05;;;7.10;55.40;;;;;;5034283;28;20021;-74
2023/02/25 08:43:04;;;;;;;6.00;1.70;;;7.20;56.20;;;;;;5034203;28;20119;-74
2023/02/25 08:45:31;;;;;;;6.93;2.05;;;7.10;54.30;;;;;;5033436;28;20017;-75
2023/02/25 08:47:57;;;;;;;4.28;1.83;;;6.70;52.30;;;;;;5033821;28;20497;-74
2023/02/25 08:50:23;;;;;;;7.28;1.55;;;6.30;53.80;;;;;;5051859;28;20029;-75
2023/02/25 08:52:49;;;;;;;9.07;1.85;;;5.90;54.20;;;;;;5034274;28;20050;-76
2023/02/25 08:55:15;;;;;;;7.05;2.00;;;5.40;55.60;;;;;;5033831;28;20040;-75
2023/02/25 08:57:41;;;;;;;8.38;4.32;;;5.30;58.00;;;;;;5033675;28;20365;-76
2023/02/25 09:00:09;;;;;;;12.60;4.50;;;5.30;58.30;;;;;;5034990;28;20041;-74
2023/02/25 09:02:35;;;;;;;13.18;6.57;;;5.30;57.20;;;;;;5037561;28;20037;-74
2023/02/25 09:05:01;;;;;;;8.30;2.63;;;5.10;58.10;;;;;;5037483;28;20123;-75
2023/02/25 09:07:26;;;;;;;6.85;3.20;;;5.00;58.70;;;;;;5037700;28;20025;-75
2023/02/25 09:09:52;;;;;;;7.40;2.78;;;4.90;60.20;;;;;;5036816;28;20037;-75
2023/02/25 09:12:17;;;;;;;7.47;2.58;;;5.10;59.90;;;;;;5037537;28;20127;-76
2023/02/25 09:14:43;;;;;;;11.65;3.25;;;5.10;59.20;;;;;;5037513;28;20065;-76
2023/02/25 09:17:09;;;;;;;8.07;3.17;;;5.40;58.00;;;;;;5020213;28;20362;-76
2023/02/25 09:19:37;;;;;;;10.13;4.68;;;5.40;57.70;;;;;;5036780;28;20164;-76
2023/02/25 09:22:06;;;;;;;8.18;3.25;;;5.50;58.20;;;;;;5037417;28;20028;-75
2023/02/25 09:24:32;;;;;;;6.38;2.38;;;5.70;59.40;;;;;;5036711;28;20115;-76
2023/02/25 09:27:05;;;;;;;6.18;2.63;;;6.00;54.30;;;;;;5036910;28;20045;-76
2023/02/25 09:29:31;;;;;;;6.70;2.53;;;6.00;53.20;;;;;;5037258;28;20017;-76
2023/02/25 09:31:58;;;;;;;6.93;1.80;;;6.00;53.50;;;;;;5038315;28;20112;-76
2023/02/25 09:34:23;;;;;;;8.10;2.50;;;6.20;52.10;;;;;;5036877;28;20067;-76
2023/02/25 09:36:49;;;;;;;6.43;2.72;;;6.10;53.40;;;;;;5036821;28;20020;-76
2023/02/25 09:39:14;;;;;;;5.78;2.25;;;6.00;55.10;;;;;;5036587;28;20041;-76
2023/02/25 09:41:45;;;;;;;7.10;3.05;;;5.90;53.90;;;;;;5037638;28;20028;-75
2023/02/25 09:44:19;;;;;;;6.35;2.55;;;6.00;54.30;;;;;;5037484;28;20029;-76
2023/02/25 09:47:16;;;;;;;13.90;3.00;;;5.80;54.00;;;;;;5036618;28;20025;-76
2023/02/25 09:49:52;;;;;;;7.47;2.80;;;5.60;55.70;;;;;;5036144;28;20071;-76
2023/02/25 09:52:35;;;;;;;6.88;2.58;;;5.40;57.30;;;;;;5036935;28;20025;-75
2023/02/25 09:55:17;;;;;;;6.65;2.92;;;5.20;58.60;;;;;;5036525;28;20091;-76
2023/02/25 09:57:50;;;;;;;7.07;2.85;;;5.20;59.80;;;;;;5036235;28;20588;-75
2023/02/25 10:00:18;;;;;;;5.82;3.08;;;5.40;60.30;;;;;;5035353;28;20025;-76
2023/02/25 10:03:01;;;;;;;10.10;3.22;;;5.30;61.80;;;;;;5036225;28;20021;-76
2023/02/25 10:05:26;;;;;;;9.40;3.58;;;5.30;63.80;;;;;;5036167;28;20083;-76
2023/02/25 10:08:17;;;;;;;7.10;3.72;;;5.20;66.30;;;;;;5036249;28;20029;-76
2023/02/25 10:11:11;;;;;;;11.15;4.45;;;5.10;66.50;;;;;;5035937;28;20412;-76
2023/02/25 10:13:53;;;;;;;9.95;3.97;;;4.90;66.30;;;;;;5035819;28;20033;-76
2023/02/25 10:16:42;;;;;;;7.07;3.17;;;4.90;65.60;;;;;;5036336;28;20017;-77
2023/02/25 10:19:33;;;;;;;8.45;3.58;;;5.10;65.40;;;;;;5035564;28;20056;-76
2023/02/25 10:22:31;;;;;;;10.98;3.55;;;5.20;63.60;;;;;;5034064;28;20054;-76
2023/02/25 10:25:14;;;;;;;9.00;3.38;;;5.20;64.00;;;;;;5035483;28;20478;-75
2023/02/25 10:28:00;;;;;;;10.63;3.50;;;5.30;63.20;;;;;;5035830;28;20028;-75
2023/02/25 10:30:32;;;;;;;8.88;3.58;;;5.50;62.50;;;;;;5030960;28;20025;-75
2023/02/25 10:33:04;;;;;;;7.35;3.92;;;5.30;61.20;;;;;;5035675;28;20053;-76
2023/02/25 10:35:33;;;;;;;7.25;3.70;;;5.40;61.90;;;;;;5035303;28;20100;-75
2023/02/25 10:37:59;;;;;;;10.27;3.55;;;5.60;61.20;;;;;;5034840;28;20037;-76
2023/02/25 10:40:28;;;;;;;6.25;3.15;;;5.80;60.90;;;;;;5018516;28;20124;-75
2023/02/25 10:42:58;;;;;;;9.23;3.10;;;5.90;58.50;;;;;;5018956;28;20060;-75
2023/02/25 10:45:29;;;;;;;8.18;3.53;;;6.10;57.20;;;;;;5034508;28;20059;-75
2023/02/25 10:48:19;;;;;;;8.13;3.28;;;6.10;55.90;;;;;;5035388;28;20029;-75
2023/02/25 10:51:10;;;;;;;9.85;3.65;;;5.90;57.10;;;;;;5034741;28;20029;-76
2023/02/25 10:53:37;;;;;;;7.60;3.00;;;5.60;58.40;;;;;;5020531;28;20071;-76
2023/02/25 10:56:03;;;;;;;9.15;3.40;;;5.10;59.30;;;;;;5035132;28;20025;-76
2023/02/25 10:59:24;;;;;;;6.53;2.97;;;4.90;60.70;;;;;;5034871;28;20128;-76
2023/02/25 11:01:50;;;;;;;8.57;3.13;;;4.50;64.50;;;;;;4974559;28;20030;-78
2023/02/25 11:04:29;;;;;;;7.85;3.95;;;4.40;64.30;;;;;;4974699;28;20030;-76
2023/02/25 11:06:56;;;;;;;11.20;3.25;;;4.30;64.50;;;;;;4959498;28;20129;-75
2023/02/25 11:09:22;;;;;;;7.55;3.33;;;4.30;64.50;;;;;;4997912;28;20389;-76
2023/02/25 11:12:06;;;;;;;7.28;2.92;;;4.40;64.90;;;;;;5035390;28;20024;-77
2023/02/25 11:14:34;;;;;;;6.55;3.08;;;4.60;63.60;;;;;;5035256;28;20040;-77
2023/02/25 11:17:14;;;;;;;5.55;3.03;;;4.70;62.80;;;;;;5035089;28;20130;-77
2023/02/25 11:19:51;;;;;;;13.50;3.03;;;4.80;61.90;;;;;;5035570;28;20048;-74
2023/02/25 11:22:27;;;;;;;8.23;3.00;;;4.80;61.00;;;;;;5034383;28;20021;-76
2023/02/25 11:24:59;;;;;;;8.88;3.00;;;4.90;60.50;;;;;;5035605;28;20129;-78
2023/02/25 11:27:31;;;;;;;7.25;2.70;;;5.10;59.00;;;;;;5033874;28;20029;-77
2023/02/25 11:30:06;;;;;;;9.35;2.42;;;5.20;58.60;;;;;;5050872;28;20041;-77
2023/02/25 11:32:34;;;;;;;10.03;2.13;;;5.30;56.60;;;;;;5035010;28;20464;-78
2023/02/25 11:35:07;;;;;;;5.78;2.08;;;5.20;53.90;;;;;;5018444;28;20565;-77
2023/02/25 11:37:40;;;;;;;4.55;1.58;;;5.50;53.40;;;;;;5034683;28;20060;-78
2023/02/25 11:40:31;;;;;;;5.53;1.83;;;5.60;51.90;;;;;;5033529;28;20029;-78
2023/02/25 11:43:01;;;;;;;4.18;2.13;;;5.50;50.10;;;;;;5031954;28;20098;-76
2023/02/25 11:46:05;;;;;;;6.45;1.90;;;5.90;50.20;;;;;;5050057;28;20091;-76
2023/02/25 11:49:09;;;;;;;6.20;2.00;;;6.00;49.80;;;;;;5044481;28;20040;-79
2023/02/25 11:52:20;;;;;;;7.13;1.75;;;6.00;48.60;;;;;;5032041;28;20029;-77
2023/02/25 11:55:24;;;;;;;5.63;1.55;;;5.90;49.10;;;;;;5051274;28;20059;-81
2023/02/25 12:02:07;;;;;;;7.07;2.03;;;5.40;49.70;;;;;;5038097;28;20040;-78
2023/02/25 12:05:10;;;;;;;5.50;1.85;;;5.20;50.10;;;;;;5034429;28;20044;-79
2023/02/25 12:08:31;;;;;;;4.85;1.83;;;4.90;52.10;;;;;;5031289;28;20057;-77
2023/02/25 12:11:32;;;;;;;6.97;2.30;;;4.80;52.80;;;;;;4968453;28;20026;-77
2023/02/25 12:14:34;;;;;;;7.15;2.30;;;4.70;53.90;;;;;;5049676;28;20029;-77
2023/02/25 12:17:18;;;;;;;9.50;2.55;;;4.60;54.80;;;;;;5031816;28;20021;-76
2023/02/25 12:20:25;;;;;;;10.02;3.17;;;4.50;55.60;;;;;;5032716;28;20051;-77
2023/02/25 12:22:50;;;;;;;;;;;4.60;55.80;;;;;;5031966;28;20013;-76
2023/02/25 12:25:22;;;;;;;;;;;4.60;55.30;;;;;;5033915;28;19905;-74
2023/02/25 12:28:29;;;;;;;6.85;2.30;;;4.60;54.20;;;;;;5051207;28;20277;-84
2023/02/25 12:31:20;;;;;;;8.63;2.35;;;4.50;54.10;;;;;;5017883;28;20071;-81
2023/02/25 12:34:04;;;;;;;6.28;2.17;;;4.40;53.70;;;;;;5033088;28;20429;-78
2023/02/25 12:36:55;;;;;;;7.72;2.38;;;4.50;54.40;;;;;;5037039;28;20021;-77
2023/02/25 12:39:46;;;;;;;7.65;2.47;;;4.50;53.70;;;;;;5035751;28;20029;-82
2023/02/25 12:42:32;;;;;;;7.18;2.28;;;4.40;52.10;;;;;;5034035;28;20025;-77
2023/02/25 12:45:03;;;;;;;5.88;2.13;;;4.40;52.20;;;;;;5035191;28;20025;-78
2023/02/25 12:47:38;;;;;;;8.55;2.33;;;4.40;52.50;;;;;;5036541;28;20021;-76
2023/02/25 12:50:31;;;;;;;4.70;1.47;;;4.40;52.70;;;;;;5036049;28;20021;-77
2023/02/25 12:53:12;;;;;;;5.78;2.45;;;4.40;52.40;;;;;;5034092;28;20268;-75
2023/02/25 12:56:05;;;;;;;4.60;1.70;;;4.50;52.20;;;;;;5034855;28;20029;-75
2023/02/25 12:58:52;;;;;;;5.70;1.65;;;4.40;52.10;;;;;;5033415;28;20071;-77
2023/02/25 13:01:37;;;;;;;6.78;2.05;;;4.40;52.20;;;;;;5035901;28;20120;-82
2023/02/25 13:04:34;;;;;;;12.85;2.00;;;4.50;50.80;;;;;;5037828;28;20025;-80
2023/02/25 13:07:29;;;;;;;6.05;1.75;;;4.50;51.90;;;;;;5036768;28;20035;-77
2023/02/25 13:10:43;;;;;;;7.78;2.03;;;4.70;51.20;;;;;;5037104;28;20029;-75
2023/02/25 13:13:35;;;;;;;4.30;1.50;;;5.00;49.70;;;;;;5024033;28;20045;-75
2023/02/25 13:16:19;;;;;;;5.20;1.70;;;5.20;48.10;;;;;;5037123;28;20021;-74